< < Back
Terminal Aerodrome Forecast


Current Version              Previous Versions:   1  2  3  4  5  6  7  8  9  

Terminal Aerodrome Forecast

848
FTUS42 KJAX 261120
TAFJAX
TAF
KJAX 261120Z 2612/2712 12003KT P6SM FEW250
     FM261500 09013KT P6SM FEW045
     FM270000 10007KT P6SM SKC=

Latest METAR

396
SAUS80 KWBC 270000 RRA
MTRJAX
METAR KJAX 262356Z 09009KT 10SM FEW250 24/15 A3009 RMK AO2 SLP188
T02390150 10289 20239 56009


USA.gov is the U.S. government's official web portal to all federal, state and local government web resources and services.